createdAt,value
2022-11-28T00:03:07.041Z,37.97
2022-11-28T00:07:59.901Z,36.77
2022-11-28T00:12:52.517Z,34.47
2022-11-28T00:17:45.227Z,33.20
2022-11-28T00:22:39.152Z,36.00
2022-11-28T00:27:31.742Z,36.40
2022-11-28T00:32:24.349Z,36.97
2022-11-28T00:37:16.892Z,27.27
2022-11-28T00:42:10.817Z,24.17
2022-11-28T00:47:03.456Z,26.63
2022-11-28T00:51:56.010Z,26.63
2022-11-28T00:56:48.555Z,26.40
2022-11-28T01:01:43.854Z,28.33
2022-11-28T01:06:37.546Z,29.33
2022-11-28T01:11:30.522Z,33.80
2022-11-28T01:16:23.357Z,34.00
2022-11-28T01:21:17.384Z,35.83
2022-11-28T01:26:10.838Z,32.60
2022-11-28T01:31:04.472Z,34.57
2022-11-28T01:35:58.120Z,34.93
2022-11-28T01:40:52.196Z,30.10
2022-11-28T01:45:45.145Z,23.50
2022-11-28T01:50:38.353Z,23.33
2022-11-28T01:55:34.533Z,17.40
2022-11-28T02:00:28.571Z,9.83
2022-11-28T02:05:22.168Z,8.60
2022-11-28T02:10:18.424Z,7.27
2022-11-28T02:15:18.316Z,7.23
2022-11-28T02:20:25.771Z,7.00
2022-11-28T02:25:40.336Z,9.33
2022-11-28T02:30:39.387Z,6.83
2022-11-28T02:35:36.484Z,7.53
2022-11-28T02:40:30.684Z,8.63
2022-11-28T02:45:25.342Z,7.50
2022-11-28T02:50:20.055Z,7.40
2022-11-28T02:55:14.794Z,7.17
2022-11-28T03:00:22.242Z,7.60
2022-11-28T03:05:20.489Z,9.43
2022-11-28T03:10:21.037Z,11.30
2022-11-28T03:15:15.460Z,13.17
2022-11-28T03:20:15.818Z,12.50
2022-11-28T03:25:11.579Z,10.80
2022-11-28T03:30:09.645Z,11.60
2022-11-28T03:35:05.720Z,13.10
2022-11-28T03:40:00.620Z,13.73
2022-11-28T03:44:55.373Z,14.10
2022-11-28T03:49:52.419Z,14.07
2022-11-28T03:54:48.077Z,13.73
2022-11-28T03:59:42.643Z,13.80
2022-11-28T04:04:38.197Z,14.57
2022-11-28T04:09:40.881Z,14.03
2022-11-28T04:14:35.338Z,13.53
2022-11-28T04:19:31.357Z,13.60
2022-11-28T04:24:26.427Z,13.13
2022-11-28T04:29:22.798Z,13.30
2022-11-28T04:34:17.112Z,12.37
2022-11-28T04:39:12.418Z,13.10
2022-11-28T04:44:07.076Z,13.00
2022-11-28T04:49:01.095Z,13.30
2022-11-28T04:53:57.459Z,13.10
2022-11-28T04:58:51.662Z,12.97
2022-11-28T05:03:44.349Z,12.30
2022-11-28T05:08:38.316Z,12.00
2022-11-28T05:13:30.938Z,10.60
2022-11-28T05:18:23.502Z,10.80
2022-11-28T05:23:16.416Z,10.20
2022-11-28T05:28:10.477Z,10.00
2022-11-28T05:33:03.761Z,9.87
2022-11-28T05:37:56.487Z,18.27
2022-11-28T05:42:49.101Z,15.10
2022-11-28T05:47:43.073Z,16.27
2022-11-28T05:52:35.751Z,13.77
2022-11-28T05:57:30.038Z,14.10
2022-11-28T06:02:22.694Z,13.70
2022-11-28T06:07:16.764Z,13.50
2022-11-28T06:12:09.467Z,13.27
2022-11-28T06:17:02.054Z,13.57
2022-11-28T06:21:56.492Z,12.83
2022-11-28T06:26:50.395Z,12.90
2022-11-28T06:31:43.025Z,12.73
2022-11-28T06:36:35.647Z,13.87
2022-11-28T06:41:28.236Z,13.60
2022-11-28T06:46:22.681Z,13.10
2022-11-28T06:51:15.661Z,11.80
2022-11-28T06:56:08.919Z,14.43
2022-11-28T07:01:06.642Z,13.97
2022-11-28T07:06:02.171Z,12.40
2022-11-28T07:10:57.415Z,13.10
2022-11-28T07:15:50.158Z,11.50
2022-11-28T07:20:43.078Z,15.77
2022-11-28T07:25:37.002Z,11.00
2022-11-28T07:30:29.561Z,10.07
2022-11-28T07:35:22.206Z,10.30
2022-11-28T07:40:15.205Z,11.60
2022-11-28T07:45:10.077Z,11.00
2022-11-28T07:50:02.731Z,11.60
2022-11-28T07:54:55.631Z,10.83
2022-11-28T07:59:48.224Z,10.70
2022-11-28T08:04:48.407Z,11.80
2022-11-28T08:09:43.335Z,11.43
2022-11-28T08:14:36.149Z,12.00
2022-11-28T08:20:17.258Z,10.90
2022-11-28T08:24:42.997Z,12.27
2022-11-28T08:29:35.777Z,10.20
2022-11-28T08:34:28.342Z,11.47
2022-11-28T08:39:25.100Z,10.63
2022-11-28T08:44:19.507Z,10.97
2022-11-28T08:49:12.264Z,8.40
2022-11-28T08:54:05.334Z,10.20
2022-11-28T08:58:58.272Z,8.70
2022-11-28T09:03:52.549Z,8.83
2022-11-28T09:08:45.296Z,8.20
2022-11-28T09:13:38.045Z,10.90
2022-11-28T09:18:30.756Z,11.17
2022-11-28T09:23:24.704Z,11.87
2022-11-28T09:28:17.363Z,10.10
2022-11-28T09:33:12.303Z,14.87
2022-11-28T09:38:04.921Z,13.37
2022-11-28T09:42:59.280Z,10.53
2022-11-28T09:47:53.629Z,8.70
2022-11-28T09:52:49.516Z,8.63
2022-11-28T09:57:44.450Z,8.93
2022-11-28T10:02:40.954Z,9.43
2022-11-28T10:07:40.943Z,10.13
2022-11-28T10:12:41.379Z,10.80
2022-11-28T10:17:37.935Z,7.53
2022-11-28T10:22:35.876Z,8.23
2022-11-28T10:27:34.118Z,7.53
2022-11-28T10:32:29.548Z,7.70
2022-11-28T10:37:24.949Z,6.90
2022-11-28T10:42:21.272Z,8.70
2022-11-28T10:47:18.683Z,8.00
2022-11-28T10:52:14.888Z,7.50
2022-11-28T10:57:09.603Z,8.43
2022-11-28T11:02:05.088Z,8.90
2022-11-28T11:07:16.181Z,9.30
2022-11-28T11:12:16.765Z,10.50
2022-11-28T11:17:24.563Z,24.50
2022-11-28T11:22:19.730Z,24.17
2022-11-28T11:27:18.258Z,24.40
2022-11-28T11:32:21.671Z,23.03
2022-11-28T11:37:22.329Z,15.57
2022-11-28T11:42:20.061Z,12.17
2022-11-28T11:47:12.689Z,16.80
2022-11-28T11:52:07.632Z,9.37
2022-11-28T11:57:30.891Z,15.03
2022-11-28T12:02:28.694Z,8.70
2022-11-28T12:07:25.258Z,7.90
2022-11-28T12:12:19.007Z,7.67
2022-11-28T12:17:47.916Z,4.17
2022-11-28T12:22:42.124Z,4.00
2022-11-28T12:27:40.609Z,2.50
2022-11-28T12:32:40.018Z,2.40
2022-11-28T12:38:02.670Z,2.30
2022-11-28T12:42:56.859Z,2.30
2022-11-28T12:47:52.991Z,2.40
2022-11-28T12:52:48.753Z,2.40
2022-11-28T12:57:45.225Z,2.70
2022-11-28T13:02:53.344Z,2.50
2022-11-28T13:07:52.626Z,2.93
2022-11-28T13:12:50.137Z,3.77
2022-11-28T13:17:47.010Z,3.53
2022-11-28T13:22:46.685Z,4.40
2022-11-28T13:27:42.284Z,3.90
2022-11-28T13:32:37.599Z,4.23
2022-11-28T13:43:08.402Z,5.00
2022-11-28T13:48:01.464Z,5.73
2022-11-28T13:53:00.611Z,7.27
2022-11-28T13:57:53.405Z,6.07
2022-11-28T14:02:47.438Z,5.90
2022-11-28T14:07:40.371Z,5.70
2022-11-28T14:12:37.596Z,6.83
2022-11-28T14:17:52.026Z,8.13
2022-11-28T14:22:52.092Z,8.77
2022-11-28T14:27:49.569Z,8.40
2022-11-28T14:32:43.589Z,8.03
2022-11-28T14:37:37.804Z,8.50
2022-11-28T14:42:59.777Z,7.73
2022-11-28T14:48:04.566Z,6.43
2022-11-28T14:53:30.411Z,6.13
2022-11-28T14:58:22.999Z,4.90
2022-11-28T15:03:21.022Z,3.80
2022-11-28T15:08:31.596Z,5.43
2022-11-28T15:13:32.499Z,6.53
2022-11-28T15:18:26.150Z,16.93
2022-11-28T15:23:23.458Z,8.90
2022-11-28T15:28:17.029Z,8.70
2022-11-28T15:33:12.418Z,11.87
2022-11-28T15:38:05.056Z,15.53
2022-11-28T15:42:59.663Z,31.37
2022-11-28T15:47:52.720Z,24.33
2022-11-28T15:52:55.527Z,35.60
2022-11-28T15:57:48.136Z,30.83
2022-11-28T16:02:41.871Z,25.10
2022-11-28T16:07:40.927Z,23.30
2022-11-28T16:12:35.228Z,21.40
2022-11-28T16:17:28.587Z,20.43
2022-11-28T16:22:22.240Z,23.23
2022-11-28T16:27:27.786Z,17.97
2022-11-28T16:32:26.180Z,18.67
2022-11-28T16:37:23.982Z,19.57
2022-11-28T16:42:17.839Z,21.63
2022-11-28T16:47:24.594Z,21.27
2022-11-28T16:52:35.657Z,22.77
2022-11-28T16:57:45.112Z,24.80
2022-11-28T17:02:39.305Z,27.63
2022-11-28T17:07:32.925Z,36.97
2022-11-28T17:12:27.265Z,35.13
2022-11-28T17:17:20.697Z,34.37
2022-11-28T17:22:16.228Z,30.37
2022-11-28T17:27:09.023Z,34.13
2022-11-28T17:32:02.269Z,42.77
2022-11-28T17:36:55.164Z,34.90
2022-11-28T17:41:49.433Z,34.93
2022-11-28T17:46:42.046Z,39.03
2022-11-28T17:51:34.720Z,31.90
2022-11-28T17:56:27.359Z,37.40
2022-11-28T18:01:23.055Z,34.03
2022-11-28T18:06:16.444Z,32.27
2022-11-28T18:11:10.020Z,36.63
2022-11-28T18:16:04.981Z,35.10
2022-11-28T18:21:00.296Z,32.83
2022-11-28T18:25:53.097Z,34.80
2022-11-28T18:30:47.235Z,21.40
2022-11-28T18:35:40.310Z,21.00
2022-11-28T18:40:34.671Z,19.70
2022-11-28T18:45:29.225Z,16.77
2022-11-28T18:50:22.299Z,17.43
2022-11-28T18:55:15.771Z,18.97
2022-11-28T19:00:12.157Z,18.80
2022-11-28T19:05:05.123Z,18.83
2022-11-28T19:09:57.819Z,19.53
2022-11-28T19:14:53.390Z,42.33
2022-11-28T19:19:51.818Z,22.57
2022-11-28T19:24:44.486Z,28.27
2022-11-28T19:29:37.258Z,29.80
2022-11-28T19:34:30.180Z,24.00
2022-11-28T19:39:25.438Z,25.03
2022-11-28T19:44:20.936Z,27.73
2022-11-28T19:49:16.651Z,28.43
2022-11-28T19:54:09.904Z,28.10
2022-11-28T19:59:04.319Z,35.40
2022-11-28T20:03:56.978Z,34.83
2022-11-28T20:08:50.193Z,36.27
2022-11-28T20:13:42.899Z,35.63
2022-11-28T20:18:38.942Z,39.57
2022-11-28T20:23:31.690Z,44.87
2022-11-28T20:28:24.339Z,39.57
2022-11-28T20:33:17.063Z,41.80
2022-11-28T20:38:11.304Z,39.40
2022-11-28T20:43:03.909Z,40.50
2022-11-28T20:47:56.891Z,38.10
2022-11-28T20:52:49.504Z,40.63
2022-11-28T20:57:43.524Z,40.47
2022-11-28T21:02:36.556Z,42.60
2022-11-28T21:07:31.013Z,45.70
2022-11-28T21:12:23.692Z,46.60
2022-11-28T21:17:17.647Z,42.80
2022-11-28T21:22:10.212Z,39.60
2022-11-28T21:27:06.714Z,40.17
2022-11-28T21:31:59.376Z,35.43
2022-11-28T21:36:54.579Z,34.10
2022-11-28T21:41:47.487Z,31.40
2022-11-28T21:46:40.054Z,33.20
2022-11-28T21:51:36.747Z,31.23
2022-11-28T21:56:30.840Z,29.90
2022-11-28T22:01:24.391Z,29.60
2022-11-28T22:06:19.113Z,29.90
2022-11-28T22:11:13.283Z,25.47
2022-11-28T22:16:10.949Z,23.20
2022-11-28T22:21:06.561Z,21.67
2022-11-28T22:26:02.058Z,19.53
2022-11-28T22:30:55.598Z,20.67
2022-11-28T22:35:49.638Z,18.50
2022-11-28T22:40:42.246Z,17.27
2022-11-28T22:45:35.194Z,17.10
2022-11-28T22:50:27.997Z,18.07
2022-11-28T22:55:21.906Z,17.50
2022-11-28T23:00:15.514Z,16.33
2022-11-28T23:05:08.648Z,17.07
2022-11-28T23:10:01.577Z,15.83
2022-11-28T23:14:55.463Z,17.50
2022-11-28T23:19:48.885Z,16.23
2022-11-28T23:24:42.579Z,14.30
2022-11-28T23:29:35.274Z,14.30
2022-11-28T23:34:29.549Z,14.00
2022-11-28T23:39:23.029Z,13.70
2022-11-28T23:44:18.496Z,13.07
2022-11-28T23:49:11.636Z,11.93
2022-11-28T23:54:05.772Z,12.17
2022-11-28T23:58:58.487Z,11.10
